Time;durP1;ratioP1;P1;durP2;ratioP2;P2;SDS_P1;SDS_P2;PMS_P1;PMS_P2;Temp;Humidity;BMP_temperature;BMP_pressure;BME280_temperature;BME280_humidity;BME280_pressure;Samples;Min_cycle;Max_cycle;Signal;HPM_P1;HPM_P2
2023/03/23 00:01:49;;;;;;;;;0.33;0.33;;;;;14.53;100.00;100180.56;5046727;28;45474;-73
2023/03/23 00:04:15;;;;;;;;;1.00;1.00;;;;;14.34;100.00;100147.69;5060431;28;46202;-72
2023/03/23 00:06:41;;;;;;;;;0.33;0.33;;;;;14.49;100.00;100174.72;5047459;28;45504;-72
2023/03/23 00:09:06;;;;;;;;;3.00;0.67;;;;;14.51;100.00;100177.22;5045064;28;45566;-73
2023/03/23 00:11:32;;;;;;;;;1.33;0.33;;;;;14.50;100.00;100179.13;5046893;28;45357;-75
2023/03/23 00:14:00;;;;;;;;;0.33;0.00;;;;;14.50;100.00;100168.09;5038672;28;45674;-73
2023/03/23 00:16:31;;;;;;;;;0.00;0.00;;;;;14.46;100.00;100183.47;5043707;28;46074;-73
2023/03/23 00:19:02;;;;;;;;;1.00;1.00;;;;;14.39;100.00;100163.50;5047000;28;45486;-72
2023/03/23 00:21:34;;;;;;;;;2.00;0.00;;;;;14.43;100.00;100159.13;5048628;28;45887;-72
2023/03/23 00:24:12;;;;;;;;;1.00;1.00;;;;;14.39;100.00;100158.81;5046964;28;45700;-72
2023/03/23 00:26:40;;;;;;;;;2.00;0.67;;;;;14.37;100.00;100160.13;5046661;28;45985;-72
2023/03/23 00:29:13;;;;;;;;;0.67;0.67;;;;;14.36;100.00;100159.31;5048710;28;45352;-72
2023/03/23 00:31:39;;;;;;;;;2.00;2.00;;;;;14.31;100.00;100150.91;5031857;28;45839;-73
2023/03/23 00:34:05;;;;;;;;;1.00;1.00;;;;;14.34;100.00;100150.44;5046935;28;45667;-73
2023/03/23 00:36:33;;;;;;;;;0.33;0.33;;;;;14.33;100.00;100137.72;5051517;28;46157;-73
2023/03/23 00:38:59;;;;;;;;;0.00;0.00;;;;;14.24;100.00;100129.03;5053131;28;45705;-72
2023/03/23 00:41:28;;;;;;;;;2.00;1.00;;;;;14.26;100.00;100154.44;5053254;28;45543;-72
2023/03/23 00:43:57;;;;;;;;;0.00;0.00;;;;;14.23;100.00;100159.59;5051278;28;45466;-74
2023/03/23 00:46:24;;;;;;;;;0.67;0.67;;;;;14.22;100.00;100150.50;5052655;28;46465;-72
2023/03/23 00:48:50;;;;;;;;;0.00;0.00;;;;;14.27;100.00;100155.28;5049525;28;45846;-72
2023/03/23 00:51:17;;;;;;;;;2.00;0.33;;;;;14.26;100.00;100146.16;5052459;28;46144;-72
2023/03/23 00:53:43;;;;;;;;;0.33;0.00;;;;;14.29;100.00;100148.41;5052544;28;45892;-72
2023/03/23 00:56:09;;;;;;;;;1.67;0.00;;;;;14.29;100.00;100147.59;5049869;28;45527;-72
2023/03/23 00:58:35;;;;;;;;;0.67;0.67;;;;;14.30;100.00;100157.53;5050507;28;45722;-72
2023/03/23 01:01:01;;;;;;;;;1.00;1.00;;;;;14.32;100.00;100147.09;5053741;28;45769;-72
2023/03/23 01:03:28;;;;;;;;;2.67;1.00;;;;;14.29;100.00;100145.66;5042515;28;45310;-72
2023/03/23 01:05:54;;;;;;;;;1.00;1.00;;;;;14.32;100.00;100149.84;5047756;28;45680;-72
2023/03/23 01:08:21;;;;;;;;;1.00;1.00;;;;;14.35;100.00;100149.34;5052082;28;45951;-73
2023/03/23 01:10:46;;;;;;;;;1.00;0.00;;;;;14.40;100.00;100138.41;5052414;28;45711;-72
2023/03/23 01:13:12;;;;;;;;;1.00;0.67;;;;;14.35;100.00;100138.31;5050330;28;45490;-72
2023/03/23 01:15:38;;;;;;;;;1.67;1.67;;;;;14.25;100.00;100103.13;5046087;28;46046;-72
2023/03/23 01:18:04;;;;;;;;;0.00;0.00;;;;;14.32;100.00;100107.63;5047717;28;45832;-72
2023/03/23 01:20:31;;;;;;;;;2.67;1.00;;;;;14.28;100.00;100099.88;5049188;28;45539;-74
2023/03/23 01:23:00;;;;;;;;;1.00;1.00;;;;;14.41;100.00;100148.34;5050670;28;45820;-73
2023/03/23 01:25:30;;;;;;;;;0.67;0.67;;;;;14.40;100.00;100134.78;5047436;28;45785;-72
2023/03/23 01:27:57;;;;;;;;;1.67;1.00;;;;;14.38;100.00;100134.22;5047647;28;45525;-73
2023/03/23 01:30:23;;;;;;;;;2.00;2.00;;;;;14.36;100.00;100142.75;5051154;28;45517;-73
2023/03/23 01:32:48;;;;;;;;;1.00;1.00;;;;;14.33;100.00;100125.88;5052339;28;45756;-73
2023/03/23 01:35:16;;;;;;;;;1.00;1.00;;;;;14.26;100.00;100118.56;5051326;28;46059;-72
2023/03/23 01:37:44;;;;;;;;;0.67;0.33;;;;;14.24;100.00;100118.00;5047386;28;45962;-72
2023/03/23 01:40:10;;;;;;;;;1.00;1.00;;;;;14.24;100.00;100106.13;5044572;28;45518;-71
2023/03/23 01:42:37;;;;;;;;;2.00;1.00;;;;;14.22;100.00;100106.38;5051632;28;46351;-72
2023/03/23 01:45:17;;;;;;;;;2.33;1.33;;;;;14.18;100.00;100085.91;5051303;28;45443;-73
2023/03/23 01:47:43;;;;;;;;;0.33;0.33;;;;;14.11;100.00;100091.56;5051433;28;45416;-73
2023/03/23 01:50:08;;;;;;;;;1.00;1.00;;;;;14.09;100.00;100092.91;5051374;28;45382;-73
2023/03/23 01:52:36;;;;;;;;;0.67;0.67;;;;;13.99;100.00;100074.25;5051864;28;45602;-73
2023/03/23 01:55:03;;;;;;;;;1.00;1.00;;;;;14.00;100.00;100078.69;5045604;28;46219;-72
2023/03/23 01:57:29;;;;;;;;;1.00;1.00;;;;;14.00;100.00;100086.13;5039923;28;45492;-73
2023/03/23 01:59:58;;;;;;;;;0.67;0.67;;;;;13.97;100.00;100078.31;5044608;28;45794;-72
2023/03/23 02:02:25;;;;;;;;;0.33;0.33;;;;;13.90;100.00;100070.22;5050942;28;45979;-74
2023/03/23 02:04:51;;;;;;;;;1.33;0.67;;;;;13.97;100.00;100100.38;5048654;28;47158;-75
2023/03/23 02:07:20;;;;;;;;;0.67;0.67;;;;;13.98;100.00;100099.31;5049187;28;45534;-73
2023/03/23 02:09:45;;;;;;;;;1.00;0.00;;;;;13.96;100.00;100091.28;5051755;28;45873;-73
2023/03/23 02:12:11;;;;;;;;;1.00;1.00;;;;;13.92;100.00;100090.97;5050932;28;45724;-72
2023/03/23 02:14:36;;;;;;;;;1.00;1.00;;;;;13.98;100.00;100102.06;5051162;28;45826;-73
2023/03/23 02:17:15;;;;;;;;;2.00;1.00;;;;;14.00;100.00;100117.28;5051230;28;45700;-75
2023/03/23 02:19:44;;;;;;;;;1.00;1.00;;;;;14.06;100.00;100134.75;5045532;28;45847;-73
2023/03/23 02:22:24;;;;;;;;;1.00;1.00;;;;;14.06;100.00;100149.38;5044691;28;45754;-74
2023/03/23 02:25:12;;;;;;;;;1.00;1.00;;;;;14.08;100.00;100143.63;5044961;28;45619;-73
2023/03/23 02:27:52;;;;;;;;;3.67;1.00;;;;;14.12;100.00;100133.78;5050898;28;45406;-73
2023/03/23 02:30:33;;;;;;;;;0.67;0.67;;;;;14.12;100.00;100136.53;5066332;28;45511;-73
2023/03/23 02:33:24;;;;;;;;;1.00;1.00;;;;;14.12;100.00;100133.78;5049952;28;45777;-72
2023/03/23 02:35:57;;;;;;;;;1.33;1.33;;;;;14.04;100.00;100129.50;5040807;28;46194;-72
2023/03/23 02:38:50;;;;;;;;;0.67;0.67;;;;;14.18;100.00;100138.28;5046027;28;45538;-73
2023/03/23 02:41:21;;;;;;;;;1.00;1.00;;;;;14.09;100.00;100139.78;5045840;28;45538;-73
2023/03/23 02:43:49;;;;;;;;;0.67;0.67;;;;;14.18;100.00;100145.75;5049551;28;45625;-73
2023/03/23 02:46:15;;;;;;;;;1.67;1.67;;;;;14.16;100.00;100131.34;5040374;28;46875;-72
2023/03/23 02:48:44;;;;;;;;;1.00;1.00;;;;;14.22;100.00;100136.72;5048887;28;45332;-73
2023/03/23 02:51:11;;;;;;;;;1.67;1.67;;;;;14.25;100.00;100124.34;5049715;28;45610;-72
2023/03/23 02:53:41;;;;;;;;;0.33;0.33;;;;;14.24;100.00;100128.19;5047322;28;46114;-72
2023/03/23 02:56:09;;;;;;;;;0.67;0.67;;;;;14.26;100.00;100114.97;5049566;28;46119;-72
2023/03/23 02:58:35;;;;;;;;;2.00;0.00;;;;;14.21;100.00;100115.72;5047131;28;45447;-72
2023/03/23 03:01:16;;;;;;;;;0.00;0.00;;;;;14.19;100.00;100112.41;5050497;28;45572;-72
2023/03/23 03:03:42;;;;;;;;;1.33;1.00;;;;;14.23;100.00;100116.31;5050283;28;45761;-72
2023/03/23 03:06:28;;;;;;;;;1.00;1.00;;;;;14.25;100.00;100113.31;5049467;28;45531;-73
2023/03/23 03:09:06;;;;;;;;;0.33;0.33;;;;;14.23;100.00;100099.75;5035171;28;45879;-73
2023/03/23 03:11:34;;;;;;;;;0.00;0.00;;;;;14.10;100.00;100078.03;5047252;28;45526;-73
2023/03/23 03:14:17;;;;;;;;;0.33;0.33;;;;;14.23;100.00;100082.38;5050239;28;45825;-73
2023/03/23 03:17:01;;;;;;;;;2.33;1.33;;;;;14.29;100.00;100109.78;5048934;28;45873;-72
2023/03/23 03:19:35;;;;;;;;;0.67;0.67;;;;;14.30;100.00;100107.88;5044519;28;45603;-73
2023/03/23 03:22:01;;;;;;;;;1.00;1.00;;;;;14.28;100.00;100107.28;5038821;28;45680;-72
2023/03/23 03:24:29;;;;;;;;;1.00;1.00;;;;;14.28;100.00;100102.63;5043902;28;45751;-74
2023/03/23 03:26:59;;;;;;;;;0.67;0.67;;;;;14.31;100.00;100106.78;5047433;28;45413;-74
2023/03/23 03:29:30;;;;;;;;;2.00;2.00;;;;;14.33;100.00;100103.81;5030094;28;45426;-73
2023/03/23 03:31:58;;;;;;;;;1.67;1.67;;;;;14.34;100.00;100106.31;5036157;28;45902;-73
2023/03/23 03:34:24;;;;;;;;;1.00;1.00;;;;;14.32;100.00;100102.94;5048134;28;46107;-73
2023/03/23 03:36:53;;;;;;;;;0.00;0.00;;;;;14.30;100.00;100103.19;5058975;28;46541;-73
2023/03/23 03:39:20;;;;;;;;;1.33;1.00;;;;;14.32;100.00;100097.44;5045718;28;45828;-73
2023/03/23 03:41:47;;;;;;;;;1.00;1.00;;;;;14.28;100.00;100108.13;5047756;28;45869;-73
2023/03/23 03:44:12;;;;;;;;;3.00;1.67;;;;;14.28;100.00;100108.13;5043826;28;46015;-74
2023/03/23 03:46:38;;;;;;;;;2.67;0.67;;;;;14.26;100.00;100091.00;5042556;28;45817;-74
2023/03/23 03:49:07;;;;;;;;;0.33;0.33;;;;;14.25;100.00;100086.56;5049480;28;45776;-74
2023/03/23 03:51:34;;;;;;;;;2.00;2.00;;;;;14.27;100.00;100089.09;5050819;28;45843;-73
2023/03/23 03:54:02;;;;;;;;;1.67;0.33;;;;;14.29;100.00;100098.75;5050656;28;45448;-73
2023/03/23 03:56:27;;;;;;;;;3.67;2.00;;;;;14.26;100.00;100091.00;5048307;28;45901;-73
2023/03/23 03:58:53;;;;;;;;;1.00;1.00;;;;;14.10;100.00;100067.00;5046489;28;45837;-72
2023/03/23 04:01:23;;;;;;;;;0.00;0.00;;;;;14.25;100.00;100082.97;5045777;28;46022;-72
2023/03/23 04:03:50;;;;;;;;;2.00;0.33;;;;;14.24;100.00;100090.41;5060796;28;46113;-74
2023/03/23 04:06:16;;;;;;;;;1.00;1.00;;;;;14.25;100.00;100085.72;5049729;28;46161;-73
2023/03/23 04:08:42;;;;;;;;;2.00;2.00;;;;;14.24;100.00;100095.09;5049116;28;45884;-72
2023/03/23 04:11:10;;;;;;;;;1.67;1.67;;;;;14.27;100.00;100091.84;5048183;28;45502;-74
2023/03/23 04:13:35;;;;;;;;;1.67;1.00;;;;;14.28;100.00;100091.59;5049730;28;45507;-74
2023/03/23 04:16:01;;;;;;;;;2.00;0.00;;;;;14.28;100.00;100096.25;5047688;28;46409;-74
2023/03/23 04:18:28;;;;;;;;;3.33;1.67;;;;;14.25;100.00;100097.59;5063453;28;45723;-74
2023/03/23 04:20:58;;;;;;;;;2.33;1.67;;;;;14.24;100.00;100092.34;5037642;28;45769;-74
2023/03/23 04:23:25;;;;;;;;;2.00;1.00;;;;;14.28;100.00;100102.63;5046738;28;46464;-72
2023/03/23 04:25:53;;;;;;;;;3.00;1.00;;;;;14.28;100.00;100102.63;5054276;28;46381;-72
2023/03/23 04:28:19;;;;;;;;;0.00;0.00;;;;;14.26;100.00;100121.31;5049354;28;45519;-72
2023/03/23 04:30:45;;;;;;;;;1.00;0.00;;;;;14.29;100.00;100125.53;5047905;28;45431;-72
2023/03/23 04:33:14;;;;;;;;;0.00;0.00;;;;;14.28;100.00;100130.22;5047546;28;46095;-72
2023/03/23 04:35:45;;;;;;;;;1.00;1.00;;;;;14.30;100.00;100130.78;5043355;28;46158;-74
2023/03/23 04:38:11;;;;;;;;;1.33;1.33;;;;;14.29;100.00;100120.00;5042463;28;45717;-73
2023/03/23 04:40:39;;;;;;;;;1.33;1.33;;;;;14.36;100.00;100125.38;5047051;28;45426;-75
2023/03/23 04:43:05;;;;;;;;;0.00;0.00;;;;;14.35;100.00;100121.75;5044344;28;46250;-74
2023/03/23 04:45:37;;;;;;;;;3.00;1.67;;;;;14.29;100.00;100112.56;5047846;28;46288;-73
2023/03/23 04:48:04;;;;;;;;;1.00;1.00;;;;;14.30;100.00;100105.97;5047580;28;45915;-73
2023/03/23 04:50:32;;;;;;;;;2.00;2.00;;;;;14.24;100.00;100111.66;5048737;28;45821;-79
2023/03/23 04:53:05;;;;;;;;;1.00;1.00;;;;;14.23;100.00;100112.72;5041817;28;45698;-80
2023/03/23 04:55:35;;;;;;;;;0.67;0.67;;;;;14.16;100.00;100101.88;5047445;28;45512;-81
2023/03/23 04:58:02;;;;;;;;;0.33;0.33;;;;;13.91;100.00;100072.75;5038664;28;45710;-80
2023/03/23 05:00:29;;;;;;;;;1.00;1.00;;;;;14.06;100.00;100083.22;5060846;28;45886;-80
2023/03/23 05:02:55;;;;;;;;;1.67;1.00;;;;;13.91;100.00;100067.22;5064667;28;45791;-79
2023/03/23 05:05:21;;;;;;;;;0.00;0.00;;;;;14.11;100.00;100099.00;5053746;28;45380;-78
2023/03/23 05:07:47;;;;;;;;;3.00;1.00;;;;;14.07;100.00;100084.03;5052566;28;45816;-78
2023/03/23 05:10:15;;;;;;;;;0.33;0.00;;;;;14.18;100.00;100112.66;5051977;28;45774;-79
2023/03/23 05:12:41;;;;;;;;;1.00;1.00;;;;;14.20;100.00;100116.81;5052458;28;45759;-74
2023/03/23 05:15:08;;;;;;;;;0.00;0.00;;;;;14.16;100.00;100103.78;5052471;28;45607;-77
2023/03/23 05:17:34;;;;;;;;;1.00;1.00;;;;;14.21;100.00;100107.47;5050447;28;45873;-76
2023/03/23 05:19:59;;;;;;;;;1.00;1.00;;;;;14.21;100.00;100112.16;5050931;28;45418;-77
2023/03/23 05:22:27;;;;;;;;;1.00;1.00;;;;;14.16;100.00;100107.38;5040607;28;46029;-74
2023/03/23 05:24:53;;;;;;;;;2.67;1.00;;;;;14.16;100.00;100104.63;5042932;28;47034;-73
2023/03/23 05:27:19;;;;;;;;;1.00;1.00;;;;;14.08;100.00;100097.56;5050244;28;45708;-74
2023/03/23 05:29:48;;;;;;;;;0.67;0.67;;;;;14.18;100.00;100113.47;5052759;28;45716;-74
2023/03/23 05:32:15;;;;;;;;;1.00;1.00;;;;;14.12;100.00;100108.97;5052362;28;45926;-73
2023/03/23 05:34:42;;;;;;;;;1.33;1.33;;;;;14.15;100.00;100116.72;5051338;28;45824;-76
2023/03/23 05:37:09;;;;;;;;;2.00;2.00;;;;;14.17;100.00;100124.75;5046681;28;45840;-76
2023/03/23 05:39:35;;;;;;;;;10.67;10.67;;;;;14.15;100.00;100122.25;5050358;28;45700;-73
2023/03/23 05:42:02;;;;;;;;;2.67;1.67;;;;;14.13;100.00;100133.53;5049565;28;45652;-74
2023/03/23 05:44:27;;;;;;;;;2.00;1.00;;;;;14.01;100.00;100109.84;5049926;28;47780;-74
2023/03/23 05:46:53;;;;;;;;;0.00;0.00;;;;;14.02;100.00;100109.59;5052578;28;45382;-75
2023/03/23 05:49:18;;;;;;;;;1.67;0.67;;;;;14.09;100.00;100128.75;5050098;28;45529;-80
2023/03/23 05:51:45;;;;;;;;;1.00;1.00;;;;;14.05;100.00;100133.09;5048192;28;45462;-74
2023/03/23 05:54:12;;;;;;;;;1.33;1.33;;;;;14.03;100.00;100111.28;5051138;28;45840;-75
2023/03/23 05:56:38;;;;;;;;;0.67;0.67;;;;;14.04;100.00;100117.63;5065897;28;45979;-75
2023/03/23 05:59:03;;;;;;;;;2.00;1.00;;;;;14.00;100.00;100111.78;5051929;28;45715;-75
2023/03/23 06:01:29;;;;;;;;;2.00;1.67;;;;;13.96;100.00;100127.13;5049389;28;45720;-74
2023/03/23 06:03:58;;;;;;;;;5.00;1.67;;;;;13.91;100.00;100124.28;5066434;28;46147;-75
2023/03/23 06:06:29;;;;;;;;;1.33;1.33;;;;;13.82;100.00;100115.56;5051330;28;44868;-74
2023/03/23 06:08:55;;;;;;;;;4.67;1.00;;;;;13.84;100.00;100118.06;5053069;28;45640;-74
2023/03/23 06:11:20;;;;;;;;;2.00;2.00;;;;;13.91;100.00;100130.63;5063373;28;47302;-73
2023/03/23 06:13:46;;;;;;;;;0.00;0.00;;;;;13.90;100.00;100137.22;5039175;28;47006;-74
2023/03/23 06:16:11;;;;;;;;;2.00;1.00;;;;;13.82;100.00;100122.97;5043288;28;45797;-76
2023/03/23 06:18:36;;;;;;;;;1.00;1.00;;;;;13.87;100.00;100137.72;5045618;28;45832;-75
2023/03/23 06:21:05;;;;;;;;;0.00;0.00;;;;;13.87;100.00;100129.44;5045324;28;45446;-73
2023/03/23 06:23:31;;;;;;;;;1.00;1.00;;;;;13.89;100.00;100134.69;5047150;28;46455;-72
2023/03/23 06:26:00;;;;;;;;;2.00;1.00;;;;;13.79;100.00;100121.56;5049369;28;45787;-73
2023/03/23 06:28:26;;;;;;;;;0.00;0.00;;;;;13.86;100.00;100130.53;5049426;28;45473;-74
2023/03/23 06:30:52;;;;;;;;;1.33;1.33;;;;;13.81;100.00;100118.56;5050909;28;45462;-75
2023/03/23 06:33:18;;;;;;;;;0.00;0.00;;;;;13.87;100.00;100140.47;5051608;28;45469;-74
2023/03/23 06:35:43;;;;;;;;;0.67;0.67;;;;;13.91;100.00;100141.66;5050164;28;45875;-74
2023/03/23 06:38:09;;;;;;;;;0.00;0.00;;;;;13.93;100.00;100152.44;5051964;28;45907;-74
2023/03/23 06:40:36;;;;;;;;;1.67;1.67;;;;;13.94;100.00;100149.44;5051249;28;45890;-74
2023/03/23 06:43:02;;;;;;;;;0.00;0.00;;;;;13.98;100.00;100137.91;5049086;28;47446;-74
2023/03/23 06:45:28;;;;;;;;;0.67;0.67;;;;;14.19;100.00;100181.34;5051844;28;45764;-74
2023/03/23 06:47:53;;;;;;;;;2.00;2.00;;;;;14.24;100.00;100180.59;5046494;28;45553;-73
2023/03/23 06:50:19;;;;;;;;;0.33;0.33;;;;;14.27;100.00;100160.78;5045230;28;45735;-73
2023/03/23 06:52:49;;;;;;;;;1.00;1.00;;;;;14.25;100.00;100169.31;5049344;28;45736;-73
2023/03/23 06:55:16;;;;;;;;;1.00;0.00;;;;;14.45;100.00;100185.38;5042739;28;45557;-72
2023/03/23 06:57:42;;;;;;;;;2.00;1.00;;;;;14.69;100.00;100185.28;5047776;28;45607;-72
2023/03/23 07:00:12;;;;;;;;;0.00;0.00;;;;;14.75;100.00;100166.91;5036998;28;45826;-74
2023/03/23 07:02:37;;;;;;;;;2.67;2.00;;;;;14.82;100.00;100175.84;5066388;28;47540;-74
2023/03/23 07:05:03;;;;;;;;;3.67;2.00;;;;;14.84;100.00;100173.66;5050157;28;45717;-75
2023/03/23 07:07:29;;;;;;;;;1.00;1.00;;;;;14.87;100.00;100183.38;5064129;28;45750;-73
2023/03/23 07:09:55;;;;;;;;;1.00;1.00;;;;;14.87;100.00;100186.97;5041482;28;46356;-78
2023/03/23 07:12:21;;;;;;;;;1.33;1.33;;;;;14.86;100.00;100179.75;5045871;28;45924;-76
2023/03/23 07:14:47;;;;;;;;;2.00;2.00;;;;;14.88;100.00;100183.13;5046531;28;45898;-74
2023/03/23 07:17:13;;;;;;;;;3.33;1.00;;;;;14.90;100.00;100180.09;5046708;28;45524;-73
2023/03/23 07:19:39;;;;;;;;;1.67;1.67;;;;;14.88;100.00;100183.13;5048733;28;45594;-76
2023/03/23 07:22:05;;;;;;;;;5.33;4.00;;;;;14.88;100.00;100194.16;5047983;28;45735;-74
2023/03/23 07:24:31;;;;;;;;;1.00;1.00;;;;;14.87;100.00;100198.00;5045126;28;45522;-77
2023/03/23 07:26:56;;;;;;;;;1.00;1.00;;;;;14.79;100.00;100174.41;5046251;28;45448;-76
2023/03/23 07:29:22;;;;;;;;;1.00;1.00;;;;;14.91;100.00;100179.00;5047158;28;45930;-75
2023/03/23 07:31:47;;;;;;;;;1.00;1.00;;;;;14.91;100.00;100188.13;5048026;28;45961;-77
2023/03/23 07:34:13;;;;;;;;;3.33;2.00;;;;;14.97;100.00;100187.13;5047405;28;45977;-77
2023/03/23 07:36:38;;;;;;;;;2.00;1.00;;;;;15.00;100.00;100177.50;5050189;28;45486;-78
2023/03/23 07:39:07;;;;;;;;;4.00;4.00;;;;;15.14;100.00;100197.31;5043779;28;45927;-78
2023/03/23 07:41:33;;;;;;;;;1.00;1.00;;;;;15.26;100.00;100200.81;5052342;28;45788;-81
2023/03/23 07:43:58;;;;;;;;;4.67;1.00;;;;;15.30;100.00;100210.28;5048421;28;45586;-79
2023/03/23 07:46:24;;;;;;;;;3.67;1.00;;;;;15.43;100.00;100216.53;5043426;28;45767;-75
2023/03/23 07:48:49;;;;;;;;;3.00;2.33;;;;;15.51;100.00;100213.34;5043421;28;46423;-74
2023/03/23 07:51:16;;;;;;;;;1.67;1.67;;;;;15.59;100.00;100192.72;5039372;28;46339;-73
2023/03/23 07:53:44;;;;;;;;;3.00;2.00;;;;;15.76;100.00;100206.47;5045988;28;45827;-74
2023/03/23 07:56:11;;;;;;;;;2.00;1.00;;;;;15.94;100.00;100210.88;5045719;28;45783;-76
2023/03/23 07:58:37;;;;;;;;;2.67;2.00;;;;;16.04;100.00;100209.06;5040375;28;46444;-75
2023/03/23 08:01:02;;;;;;;;;2.67;2.67;;;;;15.91;100.00;100194.78;5045450;28;45881;-76
2023/03/23 08:03:28;;;;;;;;;2.67;1.00;;;;;16.09;100.00;100219.34;5043808;28;45938;-76
2023/03/23 08:05:58;;;;;;;;;0.00;0.00;;;;;16.19;100.00;100218.63;5043855;28;45919;-75
2023/03/23 08:08:24;;;;;;;;;2.00;2.00;;;;;16.35;100.00;100226.00;5038390;28;46294;-76
2023/03/23 08:11:00;;;;;;;;;4.33;2.33;;;;;16.43;100.00;100224.72;5290356;22;46043;-82
2023/03/23 08:13:33;;;;;;;;;4.00;2.00;;;;;16.48;100.00;100212.84;5059508;27;45596;-81
2023/03/23 08:16:00;;;;;;;;;2.33;2.33;;;;;16.59;100.00;100206.34;5071011;27;45908;-81
2023/03/23 08:18:29;;;;;;;;;2.00;2.00;;;;;16.76;100.00;100208.97;5078795;27;46130;-77
2023/03/23 08:20:55;;;;;;;;;2.67;2.00;;;;;16.92;100.00;100207.19;5072735;27;47275;-80
2023/03/23 08:23:21;;;;;;;;;1.33;1.33;;;;;17.01;100.00;100213.91;5062273;27;45741;-80
2023/03/23 08:25:48;;;;;;;;;4.00;3.00;;;;;17.14;100.00;100209.03;5068633;27;46064;-82
2023/03/23 08:28:17;;;;;;;;;3.00;1.67;;;;;17.26;100.00;100213.28;5058733;27;45600;-80
2023/03/23 08:30:42;;;;;;;;;3.00;2.00;;;;;17.27;100.00;100203.84;5062274;27;45618;-76
2023/03/23 08:33:10;;;;;;;;;1.67;1.67;;;;;17.42;100.00;100205.88;5058986;28;45750;-77
2023/03/23 08:35:45;;;;;;;;;1.67;1.33;;;;;17.73;100.00;100227.41;5080112;27;45511;-77
2023/03/23 08:38:21;;;;;;;;;0.00;0.00;;;;;17.74;100.00;100229.91;5065633;28;45431;-81
2023/03/23 08:40:48;;;;;;;;;4.33;1.33;;;;;17.54;100.00;100199.31;5071828;27;45788;-77
2023/03/23 08:43:13;;;;;;;;;2.67;2.00;;;;;17.49;100.00;100185.41;5073124;27;45522;-78
2023/03/23 08:45:46;;;;;;;;;3.00;1.00;;;;;17.61;100.00;100228.44;5074316;27;45746;-79
2023/03/23 08:48:20;;;;;;;;;1.33;1.33;;;;;17.14;100.00;100184.94;5070024;28;45645;-81
2023/03/23 08:50:54;;;;;;;;;2.00;2.00;;;;;17.00;100.00;100183.72;5066062;28;45649;-77
2023/03/23 08:53:42;;;;;;;;;2.00;2.00;;;;;17.19;100.00;100240.38;5064613;27;45909;-77
2023/03/23 08:56:10;;;;;;;;;1.67;1.67;;;;;17.04;100.00;100207.03;5071206;27;45679;-77
2023/03/23 08:58:39;;;;;;;;;1.33;0.00;;;;;17.25;100.00;100235.72;5071214;28;45854;-77
2023/03/23 09:01:07;;;;;;;;;2.00;2.00;;;;;17.20;100.00;100241.19;5071928;27;47185;-78
2023/03/23 09:03:34;;;;;;;;;3.00;1.00;;;;;17.21;100.00;100248.44;5088249;27;46050;-77
2023/03/23 09:06:06;;;;;;;;;1.33;1.33;;;;;17.19;100.00;100253.41;5071477;28;45741;-77
2023/03/23 09:08:32;;;;;;;;;2.67;2.00;;;;;17.22;100.00;100250.09;5069863;27;45804;-76
2023/03/23 09:11:08;;;;;;;;;3.67;2.00;;;;;17.35;100.00;100251.56;5071512;27;45605;-79
2023/03/23 09:13:40;;;;;;;;;2.33;1.00;;;;;17.41;100.00;100237.50;5069374;28;45706;-78
2023/03/23 09:16:07;;;;;;;;;2.00;1.00;;;;;17.58;100.00;100233.72;5062221;27;44850;-77
2023/03/23 09:18:34;;;;;;;;;4.00;1.67;;;;;18.18;100.00;100228.75;5062291;27;46223;-77
2023/03/23 09:21:01;;;;;;;;;2.00;2.00;;;;;18.91;100.00;100224.16;5069122;27;46206;-77
2023/03/23 09:23:27;;;;;;;;;2.67;2.67;;;;;19.30;100.00;100218.06;5071291;27;46069;-77
2023/03/23 09:25:52;;;;;;;;;1.00;1.00;;;;;19.34;100.00;100210.78;5072527;27;45483;-77
2023/03/23 09:28:18;;;;;;;;;4.67;3.00;;;;;19.58;100.00;100219.34;5071710;27;45795;-77
2023/03/23 09:30:45;;;;;;;;;2.00;2.00;;;;;19.91;100.00;100214.28;5058747;28;47128;-76
2023/03/23 09:33:11;;;;;;;;;3.67;3.67;;;;;20.24;100.00;100218.31;5064559;27;45930;-77
2023/03/23 09:35:38;;;;;;;;;2.00;1.00;;;;;20.61;100.00;100232.84;5080285;27;45929;-77
2023/03/23 09:38:04;;;;;;;;;2.33;2.33;;;;;21.12;100.00;100240.00;5083244;27;45919;-77
2023/03/23 09:40:53;;;;;;;;;3.33;1.00;;;;;21.96;100.00;100259.28;5078237;27;45902;-76
2023/03/23 09:43:55;;;;;;;;;2.00;2.00;;;;;22.90;100.00;100240.13;5055197;27;46120;-77
2023/03/23 09:46:43;;;;;;;;;1.00;1.00;;;;;22.90;100.00;100257.75;5067045;27;45403;-81
2023/03/23 09:49:25;;;;;;;;;2.75;2.00;;;;;22.63;100.00;100244.44;5060158;27;45647;-82
2023/03/23 09:52:03;;;;;;;;;3.75;2.25;;;;;22.63;100.00;100247.25;5069123;27;48349;-82
2023/03/23 09:54:34;;;;;;;;;1.75;1.75;;;;;22.69;100.00;100236.81;5077373;27;45639;-82
2023/03/23 09:57:01;;;;;;;;;1.25;1.25;;;;;22.80;100.00;100209.53;5068834;28;45917;-79
2023/03/23 09:59:54;;;;;;;;;1.00;1.00;;;;;23.63;97.00;100244.19;5065699;27;45422;-79
2023/03/23 10:02:29;;;;;;;;;2.50;0.25;;;;;24.05;93.86;100221.00;5064147;27;46512;-79
2023/03/23 10:05:04;;;;;;;;;1.00;1.00;;;;;24.35;91.67;100215.88;5059488;27;45573;-79
2023/03/23 10:07:52;;;;;;;;;4.25;2.00;;;;;25.15;90.38;100222.66;5070957;27;45734;-79
2023/03/23 10:10:20;;;;;;;;;2.00;2.00;;;;;25.88;86.64;100218.72;5066755;27;45616;-81
2023/03/23 10:12:56;;;;;;;;;2.00;1.00;;;;;26.14;82.67;100210.41;5072885;27;46055;-80
2023/03/23 10:15:29;;;;;;;;;3.75;1.00;;;;;26.20;79.55;100197.06;5068183;27;45583;-79
2023/03/23 10:18:03;;;;;;;;;0.25;0.25;;;;;26.02;79.88;100213.03;5070292;27;45996;-80
2023/03/23 10:20:41;;;;;;;;;2.25;2.00;;;;;25.82;79.44;100217.22;5090176;27;47609;-80
2023/03/23 10:23:14;;;;;;;;;3.00;1.00;;;;;25.62;79.60;100205.41;5071891;27;46431;-80
2023/03/23 10:25:46;;;;;;;;;4.00;2.00;;;;;25.24;79.80;100222.72;5064187;27;45576;-81
2023/03/23 10:28:13;;;;;;;;;2.00;1.00;;;;;24.91;80.30;100214.56;5073051;27;45943;-78
2023/03/23 10:30:59;;;;;;;;;3.00;1.75;;;;;24.73;80.36;100224.81;5084668;27;46207;-80
2023/03/23 10:33:45;;;;;;;;;2.00;1.00;;;;;24.52;80.44;100232.00;5078599;27;47455;-79
2023/03/23 10:36:16;;;;;;;;;2.00;2.00;;;;;24.30;81.31;100223.25;5063778;27;45698;-81
2023/03/23 10:38:48;;;;;;;;;3.00;1.00;;;;;24.45;82.64;100233.28;5083898;27;45750;-81
2023/03/23 10:41:18;;;;;;;;;1.50;1.00;;;;;24.70;81.64;100236.69;5068807;27;46201;-77
2023/03/23 10:43:49;;;;;;;;;1.00;1.00;;;;;24.66;80.31;100252.47;5064303;27;46208;-78
2023/03/23 10:46:33;;;;;;;;;0.50;0.50;;;;;24.27;79.36;100265.91;5066152;27;45506;-77
2023/03/23 10:49:04;;;;;;;;;2.00;0.50;;;;;24.11;79.37;100256.16;5065812;28;45869;-78
2023/03/23 10:51:35;;;;;;;;;2.50;1.00;;;;;24.03;79.76;100243.72;5069720;27;45739;-75
2023/03/23 10:54:05;;;;;;;;;3.00;1.25;;;;;23.79;80.16;100218.69;5068751;27;47160;-78
2023/03/23 10:56:44;;;;;;;;;2.50;1.50;;;;;23.59;80.08;100236.72;5072779;27;45648;-80
2023/03/23 10:59:27;;;;;;;;;1.25;1.25;;;;;23.23;80.99;100240.16;5070033;27;45537;-77
2023/03/23 11:01:55;;;;;;;;;1.50;0.50;;;;;22.92;81.64;100212.69;5063590;27;45937;-77
2023/03/23 11:04:24;;;;;;;;;4.00;1.75;;;;;22.72;82.04;100225.88;5070479;27;45674;-78
2023/03/23 11:06:52;;;;;;;;;1.25;1.25;;;;;22.31;83.00;100218.09;5071013;27;45587;-77
2023/03/23 11:09:34;;;;;;;;;2.25;2.00;;;;;22.11;84.21;100229.50;5070676;28;45468;-76
2023/03/23 11:11:59;;;;;;;;;1.75;1.25;;;;;21.93;84.53;100231.97;5068632;27;45882;-77
2023/03/23 11:14:30;;;;;;;;;5.50;2.50;;;;;21.78;85.63;100229.34;5066642;28;47092;-79
2023/03/23 11:17:00;;;;;;;;;1.50;1.50;;;;;21.74;86.61;100236.66;5073061;27;45910;-76
2023/03/23 11:19:27;;;;;;;;;3.25;2.00;;;;;21.71;86.70;100240.03;5069298;27;45750;-76
2023/03/23 11:21:55;;;;;;;;;2.25;1.00;;;;;21.57;86.71;100237.97;5065674;27;45505;-75
2023/03/23 11:24:27;;;;;;;;;3.50;2.50;;;;;21.36;88.02;100233.66;5057754;27;45561;-75
2023/03/23 11:26:56;;;;;;;;;4.25;2.00;;;;;21.23;88.61;100227.66;5062044;27;45803;-77
2023/03/23 11:29:25;;;;;;;;;1.00;1.00;;;;;21.07;88.71;100218.59;5063683;27;45828;-76